createdAt,value
2022-08-12T00:02:20.339Z,48.62
2022-08-12T00:05:03.744Z,48.87
2022-08-12T00:07:48.259Z,49.30
2022-08-12T00:10:30.444Z,49.31
2022-08-12T00:13:12.624Z,49.56
2022-08-12T00:15:58.671Z,49.72
2022-08-12T00:18:40.887Z,49.82
2022-08-12T00:21:23.243Z,49.22
2022-08-12T00:24:05.539Z,50.12
2022-08-12T00:26:47.917Z,50.07
2022-08-12T00:29:31.130Z,50.88
2022-08-12T00:32:16.667Z,50.81
2022-08-12T00:35:18.120Z,50.69
2022-08-12T00:38:00.639Z,50.01
2022-08-12T00:40:44.075Z,50.04
2022-08-12T00:43:17.753Z,50.17
2022-08-12T00:45:59.975Z,50.18
2022-08-12T00:48:34.065Z,50.04
2022-08-12T00:51:07.417Z,50.50
2022-08-12T00:53:37.978Z,50.93
2022-08-12T00:56:10.993Z,50.42
2022-08-12T00:58:50.917Z,50.70
2022-08-12T01:01:21.421Z,51.39
2022-08-12T01:04:07.154Z,51.74
2022-08-12T01:06:51.153Z,52.42
2022-08-12T01:09:37.671Z,52.62
2022-08-12T01:12:08.986Z,52.00
2022-08-12T01:14:40.941Z,52.02
2022-08-12T01:17:10.837Z,52.46
2022-08-12T01:19:43.721Z,52.34
2022-08-12T01:22:25.948Z,52.84
2022-08-12T01:25:08.454Z,53.07
2022-08-12T01:27:42.895Z,53.67
2022-08-12T01:30:16.675Z,54.01
2022-08-12T01:32:50.525Z,54.14
2022-08-12T01:35:20.381Z,53.63
2022-08-12T01:37:55.006Z,53.79
2022-08-12T01:40:37.696Z,53.80
2022-08-12T01:43:11.274Z,54.03
2022-08-12T01:45:48.845Z,54.27
2022-08-12T01:48:27.675Z,54.34
2022-08-12T01:51:06.772Z,54.69
2022-08-12T01:54:04.775Z,54.78
2022-08-12T01:56:46.518Z,54.33
2022-08-12T01:59:32.764Z,54.97
2022-08-12T02:02:07.669Z,55.08
2022-08-12T02:05:07.111Z,55.51
2022-08-12T02:07:59.156Z,55.31
2022-08-12T02:10:53.200Z,56.38
2022-08-12T02:13:50.179Z,56.26
2022-08-12T02:16:30.754Z,55.57
2022-08-12T02:19:23.007Z,55.57
2022-08-12T02:22:05.658Z,55.44
2022-08-12T02:24:37.340Z,56.17
2022-08-12T02:27:11.776Z,56.14
2022-08-12T02:29:45.259Z,55.97
2022-08-12T02:32:16.701Z,56.40
2022-08-12T02:34:47.294Z,56.24
2022-08-12T02:37:18.175Z,56.56
2022-08-12T02:39:51.889Z,57.10
2022-08-12T02:42:25.254Z,56.93
2022-08-12T02:44:58.390Z,57.04
2022-08-12T02:47:58.340Z,56.69
2022-08-12T02:50:25.764Z,57.26
2022-08-12T02:52:55.889Z,57.55
2022-08-12T02:55:34.865Z,57.00
2022-08-12T02:58:12.601Z,57.35
2022-08-12T03:00:47.306Z,56.92
2022-08-12T03:03:18.044Z,57.71
2022-08-12T03:05:52.473Z,57.84
2022-08-12T03:08:32.103Z,57.33
2022-08-12T03:11:11.783Z,57.30
2022-08-12T03:13:48.693Z,57.59
2022-08-12T03:16:21.561Z,57.48
2022-08-12T03:18:52.193Z,57.51
2022-08-12T03:22:05.605Z,58.34
2022-08-12T03:24:19.986Z,58.42
2022-08-12T03:26:54.055Z,58.28
2022-08-12T03:29:30.109Z,58.65
2022-08-12T03:32:05.406Z,58.72
2022-08-12T03:34:38.253Z,59.04
2022-08-12T03:37:09.016Z,58.97
2022-08-12T03:39:45.357Z,59.00
2022-08-12T03:42:28.355Z,58.99
2022-08-12T03:45:28.916Z,59.29
2022-08-12T03:48:19.950Z,59.28
2022-08-12T03:51:02.984Z,60.17
2022-08-12T03:53:46.845Z,60.58
2022-08-12T03:56:29.472Z,60.74
2022-08-12T03:59:13.702Z,60.67
2022-08-12T04:01:43.973Z,61.77
2022-08-12T04:04:16.945Z,61.97
2022-08-12T04:06:47.636Z,61.62
2022-08-12T04:09:17.929Z,61.27
2022-08-12T04:12:00.704Z,61.91
2022-08-12T04:14:30.738Z,62.44
2022-08-12T04:17:01.155Z,62.61
2022-08-12T04:19:34.388Z,62.39
2022-08-12T04:22:04.071Z,62.24
2022-08-12T04:24:36.432Z,62.82
2022-08-12T04:27:09.316Z,63.26
2022-08-12T04:30:29.308Z,62.43
2022-08-12T04:32:30.235Z,62.85
2022-08-12T04:35:03.906Z,62.82
2022-08-12T04:37:58.675Z,63.22
2022-08-12T04:40:28.518Z,62.98
2022-08-12T04:42:58.782Z,63.52
2022-08-12T04:45:28.475Z,63.95
2022-08-12T04:47:58.477Z,63.19
2022-08-12T04:50:37.144Z,62.84
2022-08-12T04:53:11.362Z,63.25
2022-08-12T04:55:46.967Z,63.98
2022-08-12T04:58:29.306Z,63.24
2022-08-12T05:01:00.113Z,62.77
2022-08-12T05:03:46.195Z,62.48
2022-08-12T05:06:26.533Z,62.93
2022-08-12T05:09:00.678Z,63.54
2022-08-12T05:11:31.518Z,62.74
2022-08-12T05:14:03.500Z,61.46
2022-08-12T05:16:36.000Z,62.18
2022-08-12T05:19:12.865Z,62.11
2022-08-12T05:21:51.021Z,61.87
2022-08-12T05:24:20.949Z,61.55
2022-08-12T05:26:52.011Z,61.02
2022-08-12T05:30:05.583Z,60.82
2022-08-12T05:32:20.628Z,59.99
2022-08-12T05:34:50.649Z,59.54
2022-08-12T05:37:23.414Z,59.39
2022-08-12T05:39:53.411Z,59.34
2022-08-12T05:42:41.136Z,59.13
2022-08-12T05:45:12.735Z,59.05
2022-08-12T05:47:52.797Z,59.19
2022-08-12T05:50:26.605Z,58.66
2022-08-12T05:53:00.021Z,58.97
2022-08-12T05:55:31.479Z,59.48
2022-08-12T05:58:01.733Z,59.37
2022-08-12T06:00:33.420Z,58.50
2022-08-12T06:03:06.077Z,58.18
2022-08-12T06:05:54.597Z,57.16
2022-08-12T06:08:28.155Z,55.96
2022-08-12T06:10:58.294Z,55.38
2022-08-12T06:13:52.829Z,54.50
2022-08-12T06:16:19.895Z,54.52
2022-08-12T06:18:49.955Z,54.89
2022-08-12T06:21:23.544Z,53.92
2022-08-12T06:23:56.472Z,53.38
2022-08-12T06:26:26.482Z,52.28
2022-08-12T06:29:00.849Z,52.53
2022-08-12T06:31:30.971Z,52.00
2022-08-12T06:35:24.143Z,51.68
2022-08-12T06:36:55.420Z,50.91
2022-08-12T06:39:28.162Z,49.60
2022-08-12T06:42:32.228Z,48.79
2022-08-12T06:45:01.705Z,49.57
2022-08-12T06:47:32.741Z,48.64
2022-08-12T06:50:03.692Z,47.53
2022-08-12T06:52:33.768Z,47.05
2022-08-12T06:55:08.165Z,46.54
2022-08-12T06:58:01.839Z,46.26
2022-08-12T07:00:38.552Z,46.57
2022-08-12T07:03:22.604Z,46.23
2022-08-12T07:05:53.515Z,47.01
2022-08-12T07:08:25.714Z,46.61
2022-08-12T07:11:00.315Z,46.62
2022-08-12T07:13:36.027Z,47.50
2022-08-12T07:16:27.101Z,47.15
2022-08-12T07:18:59.063Z,47.07
2022-08-12T07:22:01.762Z,47.17
2022-08-12T07:24:23.779Z,46.69
2022-08-12T07:26:56.137Z,46.57
2022-08-12T07:29:26.128Z,46.26
2022-08-12T07:32:17.622Z,45.64
2022-08-12T07:34:49.840Z,45.70
2022-08-12T07:37:20.056Z,44.92
2022-08-12T07:39:59.119Z,44.74
2022-08-12T07:42:32.399Z,45.17
2022-08-12T07:45:02.309Z,44.83
2022-08-12T07:47:31.993Z,44.27
2022-08-12T07:50:06.805Z,42.84
2022-08-12T07:52:36.786Z,42.91
2022-08-12T07:55:08.272Z,42.67
2022-08-12T07:57:52.503Z,41.63
2022-08-12T08:00:23.911Z,42.22
2022-08-12T08:02:54.958Z,41.96
2022-08-12T08:05:29.070Z,40.70
2022-08-12T08:08:01.870Z,40.83
2022-08-12T08:10:34.336Z,40.29
2022-08-12T08:13:06.681Z,40.03
2022-08-12T08:16:02.970Z,40.30
2022-08-12T08:18:27.813Z,39.76
2022-08-12T08:20:59.625Z,39.54
2022-08-12T08:23:56.079Z,39.34
2022-08-12T08:26:27.278Z,39.01
2022-08-12T08:28:59.861Z,37.80
2022-08-12T08:31:29.558Z,38.55
2022-08-12T08:34:09.053Z,37.97
2022-08-12T08:36:45.422Z,37.90
2022-08-12T08:39:21.659Z,38.67
2022-08-12T08:42:15.369Z,37.01
2022-08-12T08:44:58.348Z,36.88
2022-08-12T08:47:29.859Z,37.41
2022-08-12T08:50:02.632Z,38.45
2022-08-12T08:52:39.374Z,37.56
2022-08-12T08:55:14.030Z,36.68
2022-08-12T08:57:44.992Z,36.19
2022-08-12T09:00:20.167Z,36.47
2022-08-12T09:08:32.066Z,35.22
2022-08-12T09:12:06.845Z,35.82
2022-08-12T09:14:18.636Z,35.09
2022-08-12T09:16:51.486Z,34.06
2022-08-12T09:22:18.457Z,32.26
2022-08-12T09:24:50.274Z,31.61
2022-08-12T09:27:23.419Z,30.50
2022-08-12T09:30:16.172Z,32.12
2022-08-12T09:33:04.298Z,31.14
2022-08-12T09:35:44.446Z,30.98
2022-08-12T09:38:28.027Z,30.94
2022-08-12T09:42:09.028Z,30.81
2022-08-12T09:44:05.170Z,31.15
2022-08-12T09:46:35.679Z,31.08
2022-08-12T09:49:13.462Z,30.90
2022-08-12T09:51:47.639Z,30.83
2022-08-12T09:54:31.539Z,30.54
2022-08-12T09:58:07.686Z,30.19
2022-08-12T10:00:14.634Z,30.65
2022-08-12T10:03:02.356Z,30.53
2022-08-12T10:06:26.649Z,30.17
2022-08-12T10:08:33.139Z,30.02
2022-08-12T10:11:26.266Z,30.11
2022-08-12T10:13:57.590Z,29.34
2022-08-12T10:16:35.345Z,30.16
2022-08-12T10:19:17.236Z,30.52
2022-08-12T10:21:56.925Z,30.21
2022-08-12T10:24:26.739Z,29.85
2022-08-12T10:27:14.455Z,29.94
2022-08-12T10:30:37.105Z,29.71
2022-08-12T10:32:43.697Z,29.78
2022-08-12T10:35:18.994Z,28.75
2022-08-12T10:38:35.974Z,28.72
2022-08-12T10:41:02.573Z,29.46
2022-08-12T10:43:54.283Z,29.12
2022-08-12T10:46:30.342Z,28.87
2022-08-12T10:49:06.513Z,28.85
2022-08-12T10:52:32.542Z,28.72
2022-08-12T10:54:49.252Z,28.20
2022-08-12T10:58:15.701Z,28.82
2022-08-12T11:00:30.737Z,28.21
2022-08-12T11:04:25.628Z,27.97
2022-08-12T11:07:06.995Z,28.37
2022-08-12T11:08:46.356Z,28.90
2022-08-12T11:12:36.103Z,28.78
2022-08-12T11:14:47.883Z,29.02
2022-08-12T11:17:33.628Z,28.99
2022-08-12T11:19:50.467Z,28.96
2022-08-12T11:22:24.112Z,28.64
2022-08-12T11:24:55.252Z,28.92
2022-08-12T11:27:29.602Z,29.12
2022-08-12T11:30:06.081Z,29.18
2022-08-12T11:32:38.539Z,29.48
2022-08-12T11:35:11.683Z,29.26
2022-08-12T11:37:58.402Z,28.75
2022-08-12T11:40:29.289Z,28.73
2022-08-12T11:43:19.720Z,29.00
2022-08-12T11:45:52.864Z,29.29
2022-08-12T11:48:27.129Z,28.94
2022-08-12T11:50:57.667Z,29.30
2022-08-12T11:53:57.747Z,29.49
2022-08-12T11:56:17.242Z,29.79
2022-08-12T12:02:03.114Z,26.67
2022-08-12T12:04:29.699Z,26.26
2022-08-12T12:07:07.206Z,26.47
2022-08-12T12:09:52.058Z,27.13
2022-08-12T12:12:25.859Z,27.38
2022-08-12T12:15:03.058Z,26.81
2022-08-12T12:17:39.443Z,26.88
2022-08-12T12:20:13.300Z,26.82
2022-08-12T12:22:45.192Z,27.16
2022-08-12T12:25:15.330Z,28.12
2022-08-12T12:28:05.079Z,27.22
2022-08-12T12:30:39.290Z,27.22
2022-08-12T12:33:24.299Z,27.29
2022-08-12T12:36:18.721Z,27.03
2022-08-12T12:38:43.990Z,26.89
2022-08-12T12:41:16.880Z,27.86
2022-08-12T12:44:03.651Z,27.88
2022-08-12T12:46:36.663Z,27.50
2022-08-12T12:49:06.849Z,26.69
2022-08-12T12:51:48.828Z,26.82
2022-08-12T12:54:30.872Z,27.82
2022-08-12T12:57:02.185Z,27.19
2022-08-12T12:59:54.913Z,26.87
2022-08-12T13:02:31.493Z,26.53
2022-08-12T13:05:04.733Z,26.72
2022-08-12T13:07:54.129Z,26.56
2022-08-12T13:10:30.618Z,26.31
2022-08-12T13:14:07.413Z,26.19
2022-08-12T13:15:54.011Z,26.20
2022-08-12T13:18:36.786Z,26.24
2022-08-12T13:21:15.851Z,26.85
2022-08-12T13:23:59.138Z,26.78
2022-08-12T13:26:33.070Z,25.68
2022-08-12T13:29:04.997Z,27.26
2022-08-12T13:32:13.530Z,27.40
2022-08-12T13:34:34.888Z,27.56
2022-08-12T13:37:09.671Z,27.28
2022-08-12T13:39:39.970Z,27.42
2022-08-12T13:42:13.616Z,26.48
2022-08-12T13:44:46.318Z,27.26
2022-08-12T13:47:19.924Z,26.93
2022-08-12T13:49:56.243Z,26.80
2022-08-12T13:52:26.180Z,27.06
2022-08-12T13:54:56.806Z,27.74
2022-08-12T13:57:26.877Z,27.04
2022-08-12T14:00:00.567Z,26.92
2022-08-12T14:02:42.528Z,27.37
2022-08-12T14:05:31.059Z,26.79
2022-08-12T14:08:08.728Z,26.91
2022-08-12T14:10:51.154Z,26.44
2022-08-12T14:14:03.951Z,26.75
2022-08-12T14:16:16.905Z,27.21
2022-08-12T14:19:21.811Z,26.91
2022-08-12T14:22:01.689Z,26.79
2022-08-12T14:24:41.008Z,27.07
2022-08-12T14:27:12.578Z,27.82
2022-08-12T14:30:04.142Z,27.04
2022-08-12T14:32:37.280Z,26.84
2022-08-12T14:35:11.187Z,27.10
2022-08-12T14:37:55.974Z,26.77
2022-08-12T14:40:31.518Z,26.78
2022-08-12T14:43:06.218Z,26.75
2022-08-12T14:45:44.565Z,27.12
2022-08-12T14:48:24.476Z,26.66
2022-08-12T14:52:10.359Z,26.36
2022-08-12T14:55:36.257Z,26.36
2022-08-12T14:59:57.658Z,25.89
2022-08-12T15:02:28.699Z,26.88
2022-08-12T15:04:59.856Z,26.73
2022-08-12T15:07:34.414Z,26.13
2022-08-12T15:10:32.496Z,26.44
2022-08-12T15:13:06.940Z,26.35
2022-08-12T15:15:43.826Z,26.28
2022-08-12T15:18:20.858Z,27.23
2022-08-12T15:20:51.481Z,26.29
2022-08-12T15:23:22.757Z,26.33
2022-08-12T15:26:02.683Z,26.08
2022-08-12T15:28:35.393Z,26.08
2022-08-12T15:31:21.292Z,26.06
2022-08-12T15:33:58.149Z,26.58
2022-08-12T15:36:40.770Z,26.31
2022-08-12T15:39:17.953Z,26.30
2022-08-12T15:41:55.223Z,26.46
2022-08-12T15:44:38.191Z,26.84
2022-08-12T15:47:11.410Z,26.88
2022-08-12T15:49:59.875Z,26.62
2022-08-12T15:52:32.590Z,26.58
2022-08-12T15:55:05.931Z,26.68
2022-08-12T15:57:40.139Z,27.19
2022-08-12T16:00:22.483Z,27.26
2022-08-12T16:03:05.748Z,27.21
2022-08-12T16:06:12.714Z,27.16
2022-08-12T16:08:40.133Z,26.81
2022-08-12T16:11:15.456Z,26.96
2022-08-12T16:13:48.666Z,27.12
2022-08-12T16:16:23.895Z,27.18
2022-08-12T16:18:58.781Z,27.31
2022-08-12T16:21:50.380Z,27.25
2022-08-12T16:24:20.533Z,27.35
2022-08-12T16:26:54.181Z,27.61
2022-08-12T16:29:51.989Z,26.99
2022-08-12T16:32:31.241Z,27.92
2022-08-12T16:35:02.240Z,27.67
2022-08-12T16:38:24.362Z,27.64
2022-08-12T16:40:24.298Z,27.47
2022-08-12T16:43:02.222Z,27.41
2022-08-12T16:46:05.002Z,27.73
2022-08-12T16:48:34.230Z,27.98
2022-08-12T16:51:10.223Z,27.64
2022-08-12T16:53:43.777Z,27.32
2022-08-12T16:56:15.507Z,27.89
2022-08-12T16:58:47.219Z,27.76
2022-08-12T17:01:20.028Z,27.96
2022-08-12T17:04:08.705Z,28.09
2022-08-12T17:06:43.455Z,27.42
2022-08-12T17:09:17.758Z,28.15
2022-08-12T17:11:49.275Z,27.80
2022-08-12T17:14:23.437Z,28.26
2022-08-12T17:16:58.492Z,28.23
2022-08-12T17:20:29.668Z,28.95
2022-08-12T17:22:21.481Z,28.47
2022-08-12T17:24:55.892Z,28.69
2022-08-12T17:27:30.844Z,28.64
2022-08-12T17:30:04.736Z,28.88
2022-08-12T17:32:40.825Z,29.10
2022-08-12T17:35:30.237Z,27.71
2022-08-12T17:38:13.697Z,27.39
2022-08-12T17:40:46.587Z,28.26
2022-08-12T17:43:55.687Z,28.67
2022-08-12T17:46:13.041Z,28.71
2022-08-12T17:48:57.910Z,29.07
2022-08-12T17:51:31.481Z,28.31
2022-08-12T17:54:11.004Z,27.50
2022-08-12T17:56:44.633Z,27.94
2022-08-12T17:59:48.170Z,28.63
2022-08-12T18:02:08.706Z,28.86
2022-08-12T18:05:04.899Z,29.02
2022-08-12T18:07:35.763Z,28.64
2022-08-12T18:10:06.595Z,28.56
2022-08-12T18:12:50.920Z,28.82
2022-08-12T18:15:26.327Z,28.89
2022-08-12T18:18:17.142Z,28.68
2022-08-12T18:20:51.937Z,29.26
2022-08-12T18:23:24.263Z,29.37
2022-08-12T18:26:15.489Z,29.10
2022-08-12T18:28:48.556Z,29.33
2022-08-12T18:31:23.369Z,29.53
2022-08-12T18:33:54.435Z,29.56
2022-08-12T18:36:33.985Z,29.48
2022-08-12T18:39:04.627Z,29.54
2022-08-12T18:41:36.002Z,29.98
2022-08-12T18:44:09.743Z,29.91
2022-08-12T18:46:55.307Z,29.53
2022-08-12T18:49:35.045Z,30.01
2022-08-12T18:52:12.206Z,30.06
2022-08-12T18:54:49.069Z,30.81
2022-08-12T18:58:05.895Z,31.36
2022-08-12T19:00:20.860Z,30.69
2022-08-12T19:02:53.803Z,31.14
2022-08-12T19:05:52.616Z,30.99
2022-08-12T19:08:18.030Z,31.38
2022-08-12T19:10:50.516Z,31.31
2022-08-12T19:13:35.775Z,31.64
2022-08-12T19:16:12.628Z,31.28
2022-08-12T19:18:44.821Z,31.77
2022-08-12T19:21:16.004Z,31.92
2022-08-12T19:24:09.398Z,32.58
2022-08-12T19:26:36.842Z,32.41
2022-08-12T19:29:08.453Z,32.42
2022-08-12T19:31:45.062Z,32.85
2022-08-12T19:37:22.901Z,33.28
2022-08-12T19:40:09.443Z,32.98
2022-08-12T19:43:00.631Z,31.57
2022-08-12T19:45:43.934Z,32.91
2022-08-12T19:48:22.408Z,33.46
2022-08-12T19:50:56.743Z,34.22
2022-08-12T19:53:29.137Z,34.68
2022-08-12T19:56:02.763Z,34.44
2022-08-12T19:58:32.585Z,35.15
2022-08-12T20:01:02.770Z,35.05
2022-08-12T20:03:41.470Z,35.72
2022-08-12T20:06:15.907Z,36.50
2022-08-12T20:08:56.314Z,36.52
2022-08-12T20:12:15.241Z,37.37
2022-08-12T20:14:21.513Z,37.36
2022-08-12T20:17:02.335Z,38.13
2022-08-12T20:20:01.332Z,38.13
2022-08-12T20:22:31.562Z,38.56
2022-08-12T20:25:07.214Z,38.63
2022-08-12T20:28:05.235Z,39.36
2022-08-12T20:30:52.225Z,39.73
2022-08-12T20:33:32.559Z,39.56
2022-08-12T20:36:41.770Z,40.57
2022-08-12T20:39:37.356Z,40.54
2022-08-12T20:42:00.067Z,40.58
2022-08-12T20:44:36.468Z,40.79
2022-08-12T20:47:19.691Z,41.39
2022-08-12T20:49:55.617Z,41.51
2022-08-12T20:52:34.045Z,41.85
2022-08-12T20:55:05.269Z,42.09
2022-08-12T20:58:02.531Z,42.26
2022-08-12T21:00:37.131Z,42.21
2022-08-12T21:03:23.423Z,42.33
2022-08-12T21:06:17.802Z,42.10
2022-08-12T21:08:47.815Z,41.78
2022-08-12T21:11:22.299Z,42.10
2022-08-12T21:13:54.550Z,42.08
2022-08-12T21:16:38.774Z,41.78
2022-08-12T21:19:11.851Z,42.30
2022-08-12T21:21:53.896Z,42.45
2022-08-12T21:24:32.284Z,42.01
2022-08-12T21:27:03.298Z,41.90
2022-08-12T21:29:49.932Z,42.13
2022-08-12T21:32:37.899Z,41.90
2022-08-12T21:35:19.263Z,41.95
2022-08-12T21:37:53.189Z,41.83
2022-08-12T21:40:37.326Z,41.78
2022-08-12T21:43:16.945Z,42.20
2022-08-12T21:46:00.259Z,42.09
2022-08-12T21:48:33.314Z,41.07
2022-08-12T21:51:03.105Z,41.78
2022-08-12T21:54:07.912Z,43.16
2022-08-12T21:56:38.137Z,43.14
2022-08-12T21:59:14.843Z,44.09
2022-08-12T22:01:48.960Z,44.33
2022-08-12T22:04:35.610Z,43.93
2022-08-12T22:07:08.157Z,43.82
2022-08-12T22:09:42.510Z,43.79
2022-08-12T22:12:26.873Z,43.65
2022-08-12T22:14:57.130Z,43.24
2022-08-12T22:17:49.529Z,43.48
2022-08-12T22:20:23.896Z,43.36
2022-08-12T22:23:00.360Z,43.34
2022-08-12T22:25:32.031Z,43.18
2022-08-12T22:28:14.764Z,43.46
2022-08-12T22:30:57.952Z,43.48
2022-08-12T22:33:27.618Z,43.50
2022-08-12T22:36:00.112Z,43.28
2022-08-12T22:38:31.551Z,43.41
2022-08-12T22:41:03.141Z,43.18
2022-08-12T22:43:59.247Z,43.06
2022-08-12T22:46:53.025Z,42.95
2022-08-12T22:49:37.324Z,43.68
2022-08-12T22:52:18.712Z,42.97
2022-08-12T22:55:02.660Z,43.50
2022-08-12T22:57:49.049Z,43.83
2022-08-12T23:00:27.864Z,44.43
2022-08-12T23:03:03.449Z,45.18
2022-08-12T23:06:09.725Z,45.18
2022-08-12T23:08:32.405Z,45.70
2022-08-12T23:11:05.892Z,46.20
2022-08-12T23:13:55.533Z,46.37
2022-08-12T23:16:33.387Z,46.34
2022-08-12T23:19:11.059Z,46.43
2022-08-12T23:22:03.811Z,46.40
2022-08-12T23:24:56.498Z,47.71
2022-08-12T23:27:44.467Z,47.74
2022-08-12T23:30:31.950Z,48.19
2022-08-12T23:33:19.767Z,47.94
2022-08-12T23:36:02.659Z,48.38
2022-08-12T23:38:34.675Z,47.83
2022-08-12T23:41:08.899Z,47.97
2022-08-12T23:43:42.773Z,47.76
2022-08-12T23:46:22.464Z,48.40
2022-08-12T23:48:59.754Z,48.78
2022-08-12T23:51:32.186Z,48.52
2022-08-12T23:54:05.484Z,48.90
2022-08-12T23:56:43.704Z,49.45
2022-08-12T23:59:16.752Z,49.51
